RYR2ZX EGSS-LERS
Flight info
| Callsign | RYR2ZX |
|---|---|
| Flight time | N/A |
| Altitude | 33000 |
| Route | NUGBO M183 SILVA Q41 COWLY UT71 VAPID UN859 SOPIL DCT BALAN DCT EVPOK DCT NARAK DCT GAI DCT LOMRA DCT ROCAN DCT PUMAL/N0359F230 N31 BERGA |
| Aircraft | B738/M-SDE2E3FGHIRWXY/LB1 |
Departure
| Time | N/A |
|---|---|
| Airport | London Stansted Airport (EGSS) |
Arrival
| Time | 2026-04-24 12:48 |
|---|---|
| Airport | Reus Airport (LERS) |
| Time | Latitude | Longitude | Altitude | Speed | Heading |
|---|---|---|---|---|---|
| 2026-04-24 11:51 | 45.31709 | 1.42667 | 33095 ft | 484 kts | 168° |
| 2026-04-24 11:51 | 45.28411 | 1.43725 | 33096 ft | 483 kts | 168° |
| 2026-04-24 11:52 | 45.21806 | 1.45840 | 33098 ft | 482 kts | 168° |
| 2026-04-24 11:52 | 45.15288 | 1.47922 | 33101 ft | 481 kts | 168° |
| 2026-04-24 11:53 | 45.08708 | 1.50020 | 33103 ft | 481 kts | 168° |
| 2026-04-24 11:53 | 45.02131 | 1.52111 | 33108 ft | 482 kts | 168° |
| 2026-04-24 11:54 | 44.95581 | 1.54189 | 33103 ft | 481 kts | 168° |
| 2026-04-24 11:54 | 44.89049 | 1.56257 | 33099 ft | 481 kts | 168° |
| 2026-04-24 11:55 | 44.82657 | 1.58276 | 33097 ft | 481 kts | 168° |
| 2026-04-24 11:55 | 44.76078 | 1.60348 | 33096 ft | 480 kts | 168° |
| 2026-04-24 11:56 | 44.69558 | 1.62397 | 33095 ft | 480 kts | 168° |
| 2026-04-24 11:56 | 44.63003 | 1.64453 | 33095 ft | 480 kts | 168° |
| 2026-04-24 11:57 | 44.56507 | 1.66486 | 33096 ft | 481 kts | 168° |
| 2026-04-24 11:57 | 44.49952 | 1.68531 | 33095 ft | 481 kts | 168° |
| 2026-04-24 11:58 | 44.43385 | 1.70577 | 33095 ft | 481 kts | 168° |
| 2026-04-24 11:58 | 44.36831 | 1.72613 | 33094 ft | 480 kts | 168° |
| 2026-04-24 11:59 | 44.30270 | 1.74647 | 33095 ft | 480 kts | 168° |
| 2026-04-24 11:59 | 44.23715 | 1.76426 | 33094 ft | 480 kts | 171° |
| 2026-04-24 12:00 | 44.17057 | 1.77859 | 33094 ft | 480 kts | 172° |
| 2026-04-24 12:00 | 44.10418 | 1.79229 | 33093 ft | 479 kts | 172° |
| 2026-04-24 12:01 | 44.03824 | 1.80614 | 33092 ft | 478 kts | 172° |
| 2026-04-24 12:01 | 43.97226 | 1.82027 | 33092 ft | 479 kts | 172° |
| 2026-04-24 12:02 | 43.90580 | 1.83225 | 33087 ft | 479 kts | 175° |
| 2026-04-24 12:02 | 43.84140 | 1.83836 | 33091 ft | 479 kts | 177° |
| 2026-04-24 12:03 | 43.77505 | 1.84340 | 33095 ft | 477 kts | 178° |
| 2026-04-24 12:03 | 43.70933 | 1.84874 | 33098 ft | 476 kts | 177° |
| 2026-04-24 12:04 | 43.64397 | 1.85451 | 33097 ft | 477 kts | 177° |
| 2026-04-24 12:04 | 43.57743 | 1.86070 | 33097 ft | 477 kts | 177° |
| 2026-04-24 12:05 | 43.51147 | 1.86697 | 33097 ft | 477 kts | 176° |
| 2026-04-24 12:05 | 43.44559 | 1.87327 | 33096 ft | 476 kts | 176° |
| 2026-04-24 12:06 | 43.38002 | 1.87957 | 33098 ft | 478 kts | 176° |
| 2026-04-24 12:06 | 43.31365 | 1.88593 | 33090 ft | 477 kts | 176° |
| 2026-04-24 12:07 | 43.24705 | 1.89229 | 33080 ft | 477 kts | 176° |
| 2026-04-24 12:07 | 43.18019 | 1.89868 | 33080 ft | 477 kts | 176° |
| 2026-04-24 12:08 | 43.11376 | 1.90502 | 33084 ft | 478 kts | 176° |
| 2026-04-24 12:08 | 43.04688 | 1.91138 | 33089 ft | 479 kts | 176° |
| 2026-04-24 12:09 | 42.97993 | 1.91775 | 33098 ft | 478 kts | 176° |
| 2026-04-24 12:09 | 42.91347 | 1.92403 | 33111 ft | 477 kts | 176° |
| 2026-04-24 12:10 | 42.84749 | 1.93026 | 33123 ft | 476 kts | 176° |
| 2026-04-24 12:11 | 42.74972 | 1.93944 | 33153 ft | 477 kts | 176° |
| 2026-04-24 12:11 | 42.68355 | 1.94567 | 33163 ft | 478 kts | 176° |
| 2026-04-24 12:12 | 42.61681 | 1.95484 | 33165 ft | 478 kts | 172° |
| 2026-04-24 12:12 | 42.57295 | 1.96380 | 32855 ft | 478 kts | 171° |
| 2026-04-24 12:12 | 42.55122 | 1.96855 | 32533 ft | 472 kts | 171° |
| 2026-04-24 12:12 | 42.51919 | 1.97566 | 32345 ft | 459 kts | 171° |
| 2026-04-24 12:13 | 42.48790 | 1.98257 | 32148 ft | 446 kts | 171° |
| 2026-04-24 12:13 | 42.45775 | 1.98912 | 32011 ft | 433 kts | 171° |
| 2026-04-24 12:13 | 42.42836 | 1.99538 | 31844 ft | 421 kts | 171° |
| 2026-04-24 12:13 | 42.39949 | 2.00143 | 31661 ft | 409 kts | 171° |
| 2026-04-24 12:14 | 42.37172 | 2.00718 | 31362 ft | 402 kts | 172° |
| 2026-04-24 12:14 | 42.34409 | 2.01225 | 30903 ft | 398 kts | 174° |
| 2026-04-24 12:14 | 42.31652 | 2.01608 | 30424 ft | 395 kts | 175° |
| 2026-04-24 12:14 | 42.28926 | 2.01924 | 29900 ft | 393 kts | 176° |
| 2026-04-24 12:15 | 42.26172 | 2.02224 | 29404 ft | 390 kts | 176° |
| 2026-04-24 12:15 | 42.23501 | 2.02500 | 28898 ft | 388 kts | 178° |
| 2026-04-24 12:15 | 42.20813 | 2.02389 | 28394 ft | 385 kts | 188° |
| 2026-04-24 12:15 | 42.18190 | 2.01625 | 27921 ft | 381 kts | 199° |
| 2026-04-24 12:16 | 42.15728 | 2.00306 | 27421 ft | 378 kts | 208° |
| 2026-04-24 12:16 | 42.13495 | 1.98472 | 26926 ft | 374 kts | 218° |
| 2026-04-24 12:16 | 42.11510 | 1.96291 | 26451 ft | 371 kts | 223° |
| 2026-04-24 12:16 | 42.09615 | 1.93956 | 25995 ft | 368 kts | 225° |
| 2026-04-24 12:17 | 42.07880 | 1.91726 | 25528 ft | 366 kts | 225° |
| 2026-04-24 12:17 | 42.06039 | 1.89334 | 25064 ft | 363 kts | 226° |
| 2026-04-24 12:17 | 42.04227 | 1.86990 | 24606 ft | 361 kts | 225° |
| 2026-04-24 12:17 | 42.02418 | 1.84664 | 24160 ft | 358 kts | 225° |
| 2026-04-24 12:18 | 42.00612 | 1.82357 | 23685 ft | 356 kts | 225° |
| 2026-04-24 12:18 | 41.98811 | 1.80070 | 23218 ft | 353 kts | 225° |
| 2026-04-24 12:18 | 41.97034 | 1.77830 | 22811 ft | 349 kts | 225° |
| 2026-04-24 12:18 | 41.95216 | 1.75686 | 22320 ft | 349 kts | 220° |
| 2026-04-24 12:19 | 41.93270 | 1.73705 | 21876 ft | 347 kts | 217° |
| 2026-04-24 12:19 | 41.91320 | 1.71859 | 21453 ft | 344 kts | 216° |
| 2026-04-24 12:19 | 41.89363 | 1.70045 | 21007 ft | 342 kts | 216° |
| 2026-04-24 12:19 | 41.87397 | 1.68222 | 20583 ft | 340 kts | 216° |
| 2026-04-24 12:20 | 41.85473 | 1.66424 | 20179 ft | 336 kts | 216° |
| 2026-04-24 12:20 | 41.83568 | 1.64634 | 20135 ft | 332 kts | 217° |
| 2026-04-24 12:20 | 41.81656 | 1.62827 | 20132 ft | 337 kts | 217° |
| 2026-04-24 12:20 | 41.79732 | 1.61004 | 20129 ft | 338 kts | 217° |
| 2026-04-24 12:21 | 41.77828 | 1.59198 | 20130 ft | 337 kts | 217° |
| 2026-04-24 12:21 | 41.75899 | 1.57378 | 20032 ft | 333 kts | 216° |
| 2026-04-24 12:21 | 41.73939 | 1.55726 | 19608 ft | 332 kts | 210° |
| 2026-04-24 12:21 | 41.71831 | 1.54539 | 19099 ft | 334 kts | 198° |
| 2026-04-24 12:22 | 41.69527 | 1.53748 | 18112 ft | 351 kts | 193° |
| 2026-04-24 12:22 | 41.67040 | 1.53120 | 17038 ft | 367 kts | 191° |
| 2026-04-24 12:22 | 41.64503 | 1.52544 | 15980 ft | 380 kts | 191° |
| 2026-04-24 12:22 | 41.61840 | 1.51935 | 14911 ft | 391 kts | 192° |
| 2026-04-24 12:23 | 41.59152 | 1.51297 | 13889 ft | 400 kts | 192° |
| 2026-04-24 12:23 | 41.56392 | 1.50727 | 12833 ft | 408 kts | 188° |
| 2026-04-24 12:23 | 41.53545 | 1.50542 | 11786 ft | 415 kts | 180° |
| 2026-04-24 12:23 | 41.50677 | 1.50865 | 11287 ft | 405 kts | 174° |
| 2026-04-24 12:24 | 41.47888 | 1.51414 | 10297 ft | 403 kts | 171° |
| 2026-04-24 12:24 | 41.45173 | 1.52072 | 9608 ft | 391 kts | 170° |
| 2026-04-24 12:24 | 41.42510 | 1.52757 | 9315 ft | 377 kts | 170° |
| 2026-04-24 12:24 | 41.40010 | 1.53394 | 8680 ft | 361 kts | 170° |
| 2026-04-24 12:25 | 41.37522 | 1.53966 | 7699 ft | 355 kts | 174° |
| 2026-04-24 12:25 | 41.35088 | 1.54051 | 6745 ft | 352 kts | 188° |
| 2026-04-24 12:25 | 41.32801 | 1.52997 | 5768 ft | 346 kts | 213° |
| 2026-04-24 12:25 | 41.30985 | 1.50986 | 4999 ft | 332 kts | 226° |
| 2026-04-24 12:26 | 41.29592 | 1.48725 | 4926 ft | 306 kts | 241° |
| 2026-04-24 12:26 | 41.28939 | 1.46149 | 4731 ft | 284 kts | 265° |
| 2026-04-24 12:26 | 41.29159 | 1.43612 | 4339 ft | 272 kts | 292° |
| 2026-04-24 12:26 | 41.30170 | 1.41557 | 3858 ft | 266 kts | 319° |
| 2026-04-24 12:27 | 41.31739 | 1.40303 | 3268 ft | 264 kts | 340° |
| 2026-04-24 12:27 | 41.33457 | 1.39562 | 3006 ft | 255 kts | 350° |
| 2026-04-24 12:27 | 41.35172 | 1.39468 | 2964 ft | 238 kts | 2° |
| 2026-04-24 12:27 | 41.36791 | 1.39102 | 2984 ft | 237 kts | 334° |
| 2026-04-24 12:28 | 41.38002 | 1.37666 | 2970 ft | 236 kts | 302° |
| 2026-04-24 12:28 | 41.38561 | 1.35611 | 2975 ft | 235 kts | 278° |
| 2026-04-24 12:28 | 41.38565 | 1.33455 | 2972 ft | 235 kts | 257° |
| 2026-04-24 12:28 | 41.37882 | 1.31529 | 2972 ft | 231 kts | 226° |
| 2026-04-24 12:29 | 41.36579 | 1.30310 | 2975 ft | 229 kts | 201° |
| 2026-04-24 12:29 | 41.35037 | 1.29789 | 2969 ft | 226 kts | 181° |
| 2026-04-24 12:29 | 41.33489 | 1.30134 | 2977 ft | 225 kts | 159° |
| 2026-04-24 12:29 | 41.32033 | 1.30903 | 2974 ft | 225 kts | 156° |
| 2026-04-24 12:30 | 41.30573 | 1.31681 | 2974 ft | 225 kts | 158° |
| 2026-04-24 12:30 | 41.29110 | 1.32407 | 2968 ft | 213 kts | 158° |
| 2026-04-24 12:30 | 41.27775 | 1.33048 | 2948 ft | 198 kts | 158° |
| 2026-04-24 12:30 | 41.26487 | 1.33668 | 2962 ft | 195 kts | 159° |
| 2026-04-24 12:31 | 41.25203 | 1.34292 | 2961 ft | 195 kts | 159° |
| 2026-04-24 12:31 | 41.23926 | 1.34909 | 2962 ft | 195 kts | 159° |
| 2026-04-24 12:31 | 41.22649 | 1.35517 | 2959 ft | 194 kts | 160° |
| 2026-04-24 12:31 | 41.21311 | 1.35855 | 2959 ft | 197 kts | 182° |
| 2026-04-24 12:32 | 41.20068 | 1.35132 | 2967 ft | 203 kts | 226° |
| 2026-04-24 12:32 | 41.19430 | 1.33492 | 2962 ft | 194 kts | 252° |
| 2026-04-24 12:32 | 41.19064 | 1.31796 | 2923 ft | 189 kts | 252° |
| 2026-04-24 12:32 | 41.18706 | 1.30170 | 2814 ft | 182 kts | 252° |
| 2026-04-24 12:33 | 41.18279 | 1.28631 | 2445 ft | 175 kts | 249° |
| 2026-04-24 12:33 | 41.17880 | 1.27126 | 1953 ft | 171 kts | 245° |
| 2026-04-24 12:33 | 41.17364 | 1.25741 | 1535 ft | 166 kts | 243° |
| 2026-04-24 12:33 | 41.16959 | 1.24361 | 1236 ft | 154 kts | 249° |
| 2026-04-24 12:34 | 41.16608 | 1.23076 | 951 ft | 142 kts | 245° |
| 2026-04-24 12:34 | 41.16256 | 1.21938 | 813 ft | 133 kts | 247° |
| 2026-04-24 12:34 | 41.15907 | 1.20723 | 676 ft | 146 kts | 247° |
| 2026-04-24 12:34 | 41.15543 | 1.19484 | 485 ft | 140 kts | 247° |
| 2026-04-24 12:35 | 41.15188 | 1.18251 | 272 ft | 141 kts | 247° |
| 2026-04-24 12:35 | 41.14859 | 1.17105 | 277 ft | 130 kts | 248° |
| 2026-04-24 12:35 | 41.14516 | 1.15940 | 859 ft | 142 kts | 245° |
| 2026-04-24 12:35 | 41.14098 | 1.14653 | 1354 ft | 174 kts | 244° |
| 2026-04-24 12:36 | 41.13520 | 1.13096 | 1602 ft | 190 kts | 239° |
| 2026-04-24 12:36 | 41.12853 | 1.11537 | 1813 ft | 187 kts | 238° |
| 2026-04-24 12:36 | 41.12033 | 1.10299 | 2012 ft | 184 kts | 204° |
| 2026-04-24 12:36 | 41.10774 | 1.10094 | 2085 ft | 187 kts | 171° |
| 2026-04-24 12:37 | 41.09467 | 1.10319 | 2136 ft | 196 kts | 176° |
| 2026-04-24 12:37 | 41.08069 | 1.10111 | 2191 ft | 207 kts | 195° |
| 2026-04-24 12:37 | 41.06644 | 1.09648 | 2251 ft | 214 kts | 180° |
| 2026-04-24 12:37 | 41.05207 | 1.10119 | 2319 ft | 216 kts | 147° |
| 2026-04-24 12:38 | 41.04192 | 1.11582 | 2402 ft | 219 kts | 117° |
| 2026-04-24 12:38 | 41.03586 | 1.13467 | 2540 ft | 221 kts | 108° |
| 2026-04-24 12:38 | 41.03472 | 1.15488 | 2677 ft | 224 kts | 79° |
| 2026-04-24 12:39 | 41.05524 | 1.21139 | 2972 ft | 237 kts | 63° |
| 2026-04-24 12:39 | 41.06289 | 1.23084 | 2976 ft | 244 kts | 63° |
| 2026-04-24 12:39 | 41.07068 | 1.25078 | 2967 ft | 235 kts | 64° |
| 2026-04-24 12:40 | 41.07793 | 1.26937 | 2973 ft | 225 kts | 64° |
| 2026-04-24 12:40 | 41.08520 | 1.28798 | 2976 ft | 225 kts | 63° |
| 2026-04-24 12:40 | 41.09235 | 1.30627 | 2975 ft | 225 kts | 64° |
| 2026-04-24 12:40 | 41.09958 | 1.32476 | 2971 ft | 226 kts | 63° |
| 2026-04-24 12:41 | 41.10682 | 1.34329 | 2970 ft | 226 kts | 63° |
| 2026-04-24 12:41 | 41.11408 | 1.36190 | 2977 ft | 226 kts | 64° |
| 2026-04-24 12:41 | 41.12125 | 1.38020 | 2967 ft | 225 kts | 63° |
| 2026-04-24 12:41 | 41.12856 | 1.39886 | 2972 ft | 226 kts | 63° |
| 2026-04-24 12:42 | 41.13581 | 1.41741 | 2969 ft | 225 kts | 64° |
| 2026-04-24 12:42 | 41.14296 | 1.43563 | 2965 ft | 216 kts | 63° |
| 2026-04-24 12:42 | 41.15100 | 1.45133 | 2958 ft | 199 kts | 40° |
| 2026-04-24 12:42 | 41.16339 | 1.45752 | 2967 ft | 183 kts | 3° |
| 2026-04-24 12:43 | 41.17571 | 1.45536 | 2963 ft | 179 kts | 343° |
| 2026-04-24 12:43 | 41.18695 | 1.44816 | 2965 ft | 181 kts | 324° |
| 2026-04-24 12:43 | 41.19532 | 1.43563 | 2967 ft | 182 kts | 295° |
| 2026-04-24 12:43 | 41.19867 | 1.41944 | 2973 ft | 181 kts | 277° |
| 2026-04-24 12:44 | 41.20038 | 1.40297 | 2968 ft | 182 kts | 278° |
| 2026-04-24 12:44 | 41.20237 | 1.38635 | 2961 ft | 181 kts | 278° |
| 2026-04-24 12:44 | 41.20390 | 1.37009 | 3005 ft | 169 kts | 267° |
| 2026-04-24 12:44 | 41.20082 | 1.35563 | 2966 ft | 158 kts | 248° |
| 2026-04-24 12:45 | 41.19745 | 1.34165 | 2742 ft | 158 kts | 252° |
| 2026-04-24 12:45 | 41.19435 | 1.32808 | 2467 ft | 149 kts | 249° |
| 2026-04-24 12:45 | 41.19080 | 1.31518 | 2371 ft | 150 kts | 247° |
| 2026-04-24 12:45 | 41.18683 | 1.30220 | 2131 ft | 153 kts | 245° |
| 2026-04-24 12:46 | 41.18276 | 1.28893 | 1874 ft | 150 kts | 246° |
| 2026-04-24 12:46 | 41.17902 | 1.27592 | 1701 ft | 150 kts | 247° |
| 2026-04-24 12:46 | 41.17530 | 1.26290 | 1494 ft | 145 kts | 246° |
| 2026-04-24 12:46 | 41.17169 | 1.25050 | 1301 ft | 142 kts | 248° |
| 2026-04-24 12:47 | 41.16810 | 1.23800 | 1102 ft | 140 kts | 247° |
| 2026-04-24 12:47 | 41.16436 | 1.22572 | 928 ft | 144 kts | 247° |
| 2026-04-24 12:47 | 41.16082 | 1.21327 | 779 ft | 143 kts | 247° |
| 2026-04-24 12:47 | 41.15731 | 1.20114 | 555 ft | 141 kts | 245° |
| 2026-04-24 12:48 | 41.15370 | 1.18888 | 387 ft | 140 kts | 247° |
| 2026-04-24 12:48 | 41.15030 | 1.17717 | 245 ft | 126 kts | 247° |
| 2026-04-24 12:48 | 41.14800 | 1.16926 | 246 ft | 58 kts | 249° |
| 2026-04-24 12:48 | 41.14671 | 1.16484 | 246 ft | 46 kts | 246° |
| 2026-04-24 12:49 | 41.14567 | 1.16124 | 246 ft | 38 kts | 248° |
| 2026-04-24 12:49 | 41.14548 | 1.15901 | 246 ft | 18 kts | 347° |
| 2026-04-24 12:49 | 41.14600 | 1.15871 | 246 ft | 7 kts | 336° |
| 2026-04-24 12:49 | 41.14644 | 1.15842 | 246 ft | 6 kts | 308° |
| 2026-04-24 12:50 | 41.14646 | 1.15784 | 246 ft | 6 kts | 250° |
| 2026-04-24 12:50 | 41.14629 | 1.15733 | 246 ft | 6 kts | 248° |
| 2026-04-24 12:50 | 41.14605 | 1.15650 | 246 ft | 11 kts | 248° |
| 2026-04-24 12:50 | 41.14611 | 1.15584 | 246 ft | 7 kts | 324° |
| 2026-04-24 12:51 | 41.14654 | 1.15558 | 246 ft | 5 kts | 339° |
| 2026-04-24 12:51 | 41.14658 | 1.15556 | 246 ft | 0 kts | 339° |